createdAt,value
2019-05-17T00:02:19.083Z,100646.77
2019-05-17T00:04:46.867Z,100643.17
2019-05-17T00:07:12.102Z,100637.24
2019-05-17T00:09:37.611Z,100642.62
2019-05-17T00:12:03.116Z,100638.37
2019-05-17T00:14:28.609Z,100627.37
2019-05-17T00:16:54.027Z,100629.24
2019-05-17T00:19:19.517Z,100623.27
2019-05-17T00:21:47.326Z,100622.39
2019-05-17T00:24:12.332Z,100619.42
2019-05-17T00:26:39.783Z,100618.53
2019-05-17T00:29:06.777Z,100611.75
2019-05-17T00:31:32.472Z,100613.78
2019-05-17T00:33:58.358Z,100610.59
2019-05-17T00:36:37.647Z,100605.88
2019-05-17T00:39:07.458Z,100602.99
2019-05-17T00:41:32.606Z,100597.08
2019-05-17T00:43:58.101Z,100603.45
2019-05-17T00:46:23.610Z,100600.80
2019-05-17T00:48:49.107Z,100593.80
2019-05-17T00:51:16.542Z,100588.06
2019-05-17T00:53:41.892Z,100589.73
2019-05-17T00:56:07.391Z,100587.67
2019-05-17T00:58:32.901Z,100592.16
2019-05-17T01:00:58.712Z,100590.84
2019-05-17T01:03:24.220Z,100587.55
2019-05-17T01:05:49.710Z,100574.92
2019-05-17T01:08:18.952Z,100581.03
2019-05-17T01:10:44.512Z,100571.16
2019-05-17T01:13:10.215Z,100579.53
2019-05-17T01:15:36.944Z,100569.51
2019-05-17T01:18:02.734Z,100569.81
2019-05-17T01:20:30.303Z,100573.13
2019-05-17T01:22:56.701Z,100563.09
2019-05-17T01:25:22.362Z,100558.73
2019-05-17T01:27:48.093Z,100558.70
2019-05-17T01:30:17.263Z,100556.14
2019-05-17T01:32:42.301Z,100555.78
2019-05-17T01:35:08.547Z,100553.45
2019-05-17T01:37:37.019Z,100550.02
2019-05-17T01:40:02.789Z,100551.49
2019-05-17T01:42:28.831Z,100553.56
2019-05-17T01:44:56.626Z,100545.61
2019-05-17T01:47:21.981Z,100542.00
2019-05-17T01:49:47.468Z,100540.84
2019-05-17T01:52:12.967Z,100544.89
2019-05-17T01:54:38.478Z,100542.19
2019-05-17T01:57:03.993Z,100538.48
2019-05-17T01:59:29.707Z,100534.38
2019-05-17T02:01:58.597Z,100531.48
2019-05-17T02:04:24.068Z,100532.03
2019-05-17T02:06:49.582Z,100524.00
2019-05-17T02:09:32.212Z,100530.61
2019-05-17T02:11:42.269Z,100521.84
2019-05-17T02:14:07.735Z,100524.73
2019-05-17T02:16:33.230Z,100519.60
2019-05-17T02:18:58.735Z,100515.59
2019-05-17T02:21:24.236Z,100521.89
2019-05-17T02:23:49.610Z,100518.30
2019-05-17T02:26:17.333Z,100514.87
2019-05-17T02:28:42.512Z,100512.63
2019-05-17T02:31:08.155Z,100512.10
2019-05-17T02:33:34.484Z,100510.43
2019-05-17T02:36:02.604Z,100511.47
2019-05-17T02:38:27.140Z,100509.95
2019-05-17T02:40:53.776Z,100507.13
2019-05-17T02:43:19.299Z,100511.84
2019-05-17T02:45:44.756Z,100513.08
2019-05-17T02:48:13.147Z,100503.31
2019-05-17T02:50:37.674Z,100505.95
2019-05-17T02:53:04.386Z,100502.72
2019-05-17T02:55:32.455Z,100510.93
2019-05-17T02:58:03.050Z,100508.91
2019-05-17T03:00:28.107Z,100505.39
2019-05-17T03:02:53.860Z,100502.83
2019-05-17T03:05:23.314Z,100502.77
2019-05-17T03:07:48.085Z,100501.45
2019-05-17T03:10:24.027Z,100498.86
2019-05-17T03:12:44.554Z,100501.66
2019-05-17T03:15:12.610Z,100499.17
2019-05-17T03:17:36.092Z,100501.77
2019-05-17T03:20:03.936Z,100499.90
2019-05-17T03:22:28.663Z,100502.86
2019-05-17T03:24:54.076Z,100494.19
2019-05-17T03:27:19.526Z,100495.90
2019-05-17T03:29:44.969Z,100489.79
2019-05-17T03:32:16.705Z,100497.70
2019-05-17T03:34:37.957Z,100494.11
2019-05-17T03:37:06.589Z,100491.73
2019-05-17T03:39:33.297Z,100491.37
2019-05-17T03:41:57.979Z,100492.19
2019-05-17T03:44:23.948Z,100481.95
2019-05-17T03:46:49.492Z,100486.39
2019-05-17T03:49:14.941Z,100481.73
2019-05-17T03:51:42.624Z,100481.75
2019-05-17T03:54:07.466Z,100484.31
2019-05-17T03:56:33.212Z,100478.64
2019-05-17T03:59:03.403Z,100484.48
2019-05-17T04:01:27.037Z,100474.07
2019-05-17T04:03:53.120Z,100475.27
2019-05-17T04:06:18.675Z,100473.88
2019-05-17T04:08:44.159Z,100475.42
2019-05-17T04:11:22.367Z,100470.44
2019-05-17T04:13:38.824Z,100472.92
2019-05-17T04:16:08.960Z,100468.72
2019-05-17T04:18:33.611Z,100468.47
2019-05-17T04:20:59.252Z,100472.07
2019-05-17T04:23:24.723Z,100475.88
2019-05-17T04:25:53.095Z,100467.71
2019-05-17T04:28:18.286Z,100463.81
2019-05-17T04:30:44.364Z,100459.19
2019-05-17T04:33:12.797Z,100458.70
2019-05-17T04:35:36.935Z,100461.89
2019-05-17T04:38:04.397Z,100455.17
2019-05-17T04:40:29.532Z,100461.84
2019-05-17T04:42:55.003Z,100453.00
2019-05-17T04:45:22.992Z,100461.69
2019-05-17T04:48:04.471Z,100450.81
2019-05-17T04:50:33.261Z,100450.75
2019-05-17T04:53:13.554Z,100456.83
2019-05-17T04:55:42.848Z,100453.16
2019-05-17T04:58:06.886Z,100453.22
2019-05-17T05:00:33.992Z,100454.94
2019-05-17T05:02:59.495Z,100446.77
2019-05-17T05:05:25.021Z,100451.31
2019-05-17T05:07:53.200Z,100455.09
2019-05-17T05:10:17.698Z,100451.25
2019-05-17T05:12:44.160Z,100451.25
2019-05-17T05:15:12.188Z,100449.59
2019-05-17T05:17:37.407Z,100459.12
2019-05-17T05:20:03.171Z,100457.36
2019-05-17T05:22:28.576Z,100461.63
2019-05-17T05:24:54.033Z,100461.83
2019-05-17T05:27:19.462Z,100456.95
2019-05-17T05:29:44.913Z,100467.06
2019-05-17T05:32:11.822Z,100460.67
2019-05-17T05:34:37.810Z,100457.56
2019-05-17T05:37:03.585Z,100458.10
2019-05-17T05:39:28.983Z,100455.34
2019-05-17T05:42:06.388Z,100461.63
2019-05-17T05:44:21.884Z,100464.92
2019-05-17T05:46:47.422Z,100461.05
2019-05-17T05:49:12.863Z,100466.23
2019-05-17T05:51:38.335Z,100459.49
2019-05-17T05:54:03.795Z,100464.23
2019-05-17T05:56:29.188Z,100458.84
2019-05-17T05:58:54.658Z,100459.49
2019-05-17T06:01:21.936Z,100454.12
2019-05-17T06:03:47.233Z,100456.31
2019-05-17T06:06:12.927Z,100455.68
2019-05-17T06:08:38.373Z,100457.83
2019-05-17T06:11:03.804Z,100455.06
2019-05-17T06:13:29.255Z,100454.39
2019-05-17T06:15:54.702Z,100451.15
2019-05-17T06:18:22.478Z,100449.44
2019-05-17T06:20:47.318Z,100447.97
2019-05-17T06:23:12.839Z,100444.88
2019-05-17T06:25:38.131Z,100451.58
2019-05-17T06:28:03.539Z,100449.27
2019-05-17T06:30:28.998Z,100451.73
2019-05-17T06:32:54.479Z,100457.34
2019-05-17T06:35:21.758Z,100454.45
2019-05-17T06:37:47.379Z,100452.03
2019-05-17T06:40:13.424Z,100447.80
2019-05-17T06:42:42.520Z,100441.41
2019-05-17T06:45:06.869Z,100444.47
2019-05-17T06:47:32.873Z,100437.72
2019-05-17T06:49:58.502Z,100435.05
2019-05-17T06:52:23.854Z,100434.11
2019-05-17T06:54:49.439Z,100434.23
2019-05-17T06:57:14.905Z,100433.88
2019-05-17T06:59:40.361Z,100433.58
2019-05-17T07:02:05.800Z,100429.94
2019-05-17T07:04:31.240Z,100438.88
2019-05-17T07:07:20.738Z,100425.17
2019-05-17T07:09:50.546Z,100427.81
2019-05-17T07:12:21.342Z,100422.20
2019-05-17T07:14:47.379Z,100430.50
2019-05-17T07:17:13.114Z,100432.63
2019-05-17T07:19:40.051Z,100422.21
2019-05-17T07:22:05.933Z,100421.13
2019-05-17T07:24:33.411Z,100427.54
2019-05-17T07:27:00.046Z,100420.63
2019-05-17T07:29:26.118Z,100422.09
2019-05-17T07:31:51.663Z,100424.86
2019-05-17T07:34:19.840Z,100424.13
2019-05-17T07:36:47.368Z,100422.44
2019-05-17T07:39:13.308Z,100415.95
2019-05-17T07:41:40.082Z,100417.45
2019-05-17T07:44:05.910Z,100415.83
2019-05-17T07:46:31.927Z,100411.14
2019-05-17T07:48:57.216Z,100414.33
2019-05-17T07:51:22.688Z,100413.05
2019-05-17T07:53:49.510Z,100414.53
2019-05-17T07:56:15.047Z,100408.05
2019-05-17T07:58:40.578Z,100400.73
2019-05-17T08:01:06.088Z,100399.44
2019-05-17T08:03:31.571Z,100395.50
2019-05-17T08:05:59.786Z,100395.59
2019-05-17T08:08:24.330Z,100388.55
2019-05-17T08:10:50.925Z,100378.16
2019-05-17T08:13:29.107Z,100377.37
2019-05-17T08:15:44.429Z,100380.72
2019-05-17T08:18:10.755Z,100383.47
2019-05-17T08:20:36.692Z,100375.72
2019-05-17T08:23:05.070Z,100371.22
2019-05-17T08:25:30.497Z,100374.17
2019-05-17T08:27:56.333Z,100365.06
2019-05-17T08:30:22.333Z,100368.08
2019-05-17T08:32:50.403Z,100369.19
2019-05-17T08:35:15.256Z,100360.41
2019-05-17T08:37:42.233Z,100360.28
2019-05-17T08:40:10.620Z,100358.40
2019-05-17T08:42:35.536Z,100359.95
2019-05-17T08:45:01.428Z,100356.14
2019-05-17T08:47:26.923Z,100361.89
2019-05-17T08:49:52.365Z,100361.44
2019-05-17T08:52:20.015Z,100353.88
2019-05-17T08:54:45.684Z,100354.28
2019-05-17T08:57:11.162Z,100356.94
2019-05-17T08:59:36.814Z,100354.75
2019-05-17T09:02:02.263Z,100351.55
2019-05-17T09:04:29.735Z,100348.76
2019-05-17T09:06:55.319Z,100349.12
2019-05-17T09:09:20.769Z,100348.91
2019-05-17T09:11:46.248Z,100348.65
2019-05-17T09:14:11.686Z,100346.14
2019-05-17T09:16:39.925Z,100350.22
2019-05-17T09:19:04.594Z,100340.00
2019-05-17T09:21:31.744Z,100348.84
2019-05-17T09:23:59.560Z,100345.37
2019-05-17T09:26:24.461Z,100344.39
2019-05-17T09:28:55.219Z,100341.02
2019-05-17T09:31:20.682Z,100342.98
2019-05-17T09:33:46.152Z,100346.83
2019-05-17T09:36:11.595Z,100342.39
2019-05-17T09:38:37.104Z,100337.45
2019-05-17T09:41:02.558Z,100333.59
2019-05-17T09:43:29.507Z,100334.47
2019-05-17T09:45:55.029Z,100330.88
2019-05-17T09:48:20.480Z,100327.70
2019-05-17T09:50:45.926Z,100331.30
2019-05-17T09:53:11.300Z,100318.23
2019-05-17T09:55:36.729Z,100324.50
2019-05-17T09:58:02.188Z,100323.58
2019-05-17T10:00:29.681Z,100333.47
2019-05-17T10:02:55.261Z,100324.40
2019-05-17T10:05:20.637Z,100324.38
2019-05-17T10:07:46.245Z,100327.37
2019-05-17T10:10:11.888Z,100316.84
2019-05-17T10:12:37.252Z,100320.47
2019-05-17T10:15:02.787Z,100315.67
2019-05-17T10:17:29.412Z,100316.28
2019-05-17T10:19:55.184Z,100316.72
2019-05-17T10:22:20.658Z,100311.36
2019-05-17T10:24:46.107Z,100311.45
2019-05-17T10:27:14.489Z,100317.83
2019-05-17T10:29:39.485Z,100320.47
2019-05-17T10:32:05.208Z,100309.30
2019-05-17T10:34:32.740Z,100304.94
2019-05-17T10:36:58.028Z,100311.13
2019-05-17T10:39:23.395Z,100306.27
2019-05-17T10:41:50.072Z,100309.66
2019-05-17T10:44:15.925Z,100308.20
2019-05-17T10:46:41.373Z,100301.36
2019-05-17T10:49:12.961Z,100302.62
2019-05-17T10:51:40.254Z,100299.62
2019-05-17T10:54:05.578Z,100299.23
2019-05-17T10:56:31.019Z,100296.70
2019-05-17T10:58:56.403Z,100297.75
2019-05-17T11:01:21.867Z,100296.38
2019-05-17T11:03:47.296Z,100301.95
2019-05-17T11:06:13.015Z,100298.53
2019-05-17T11:08:38.437Z,100300.84
2019-05-17T11:11:03.880Z,100302.95
2019-05-17T11:13:29.239Z,100300.41
2019-05-17T11:15:54.701Z,100307.16
2019-05-17T11:18:20.171Z,100306.55
2019-05-17T11:20:45.648Z,100310.52
2019-05-17T11:23:11.112Z,100309.36
2019-05-17T11:25:36.577Z,100317.55
2019-05-17T11:28:02.248Z,100314.98
2019-05-17T11:30:27.701Z,100313.88
2019-05-17T11:32:53.096Z,100317.87
2019-05-17T11:35:18.700Z,100320.32
2019-05-17T11:37:44.143Z,100323.98
2019-05-17T11:40:12.720Z,100324.45
2019-05-17T11:42:38.231Z,100319.53
2019-05-17T11:45:04.616Z,100316.44
2019-05-17T11:47:30.070Z,100320.15
2019-05-17T11:49:55.510Z,100320.05
2019-05-17T11:52:22.165Z,100314.74
2019-05-17T11:54:47.589Z,100316.39
2019-05-17T11:57:12.906Z,100314.30
2019-05-17T11:59:38.346Z,100314.08
2019-05-17T12:02:03.816Z,100311.20
2019-05-17T12:04:29.263Z,100305.66
2019-05-17T12:06:54.707Z,100303.16
2019-05-17T12:09:20.090Z,100302.75
2019-05-17T12:11:45.813Z,100309.81
2019-05-17T12:14:11.458Z,100299.81
2019-05-17T12:16:37.540Z,100307.34
2019-05-17T12:19:02.845Z,100300.69
2019-05-17T12:21:28.598Z,100303.99
2019-05-17T12:23:54.139Z,100309.50
2019-05-17T12:26:19.639Z,100308.63
2019-05-17T12:28:45.169Z,100302.29
2019-05-17T12:31:11.167Z,100303.42
2019-05-17T12:33:40.948Z,100293.67
2019-05-17T12:36:07.523Z,100295.42
2019-05-17T12:38:32.999Z,100297.09
2019-05-17T12:40:58.474Z,100314.14
2019-05-17T12:43:23.839Z,100299.70
2019-05-17T12:46:00.083Z,100298.80
2019-05-17T12:48:16.455Z,100300.73
2019-05-17T12:50:42.159Z,100307.34
2019-05-17T12:53:07.608Z,100303.59
2019-05-17T12:55:33.080Z,100309.34
2019-05-17T12:57:58.824Z,100305.11
2019-05-17T13:00:24.719Z,100293.45
2019-05-17T13:02:50.103Z,100290.84
2019-05-17T13:05:17.591Z,100290.40
2019-05-17T13:07:43.035Z,100289.75
2019-05-17T13:10:09.665Z,100306.14
2019-05-17T13:12:35.103Z,100295.53
2019-05-17T13:15:00.730Z,100300.43
2019-05-17T13:17:26.167Z,100290.07
2019-05-17T13:19:51.608Z,100294.16
2019-05-17T13:22:17.354Z,100293.06
2019-05-17T13:24:42.836Z,100288.24
2019-05-17T13:27:11.417Z,100292.62
2019-05-17T13:29:37.499Z,100286.19
2019-05-17T13:32:02.993Z,100290.45
2019-05-17T13:34:52.983Z,100292.45
2019-05-17T13:37:18.579Z,100286.63
2019-05-17T13:39:44.828Z,100295.42
2019-05-17T13:42:10.347Z,100281.93
2019-05-17T13:44:35.792Z,100286.59
2019-05-17T13:47:01.245Z,100279.94
2019-05-17T13:49:26.651Z,100282.77
2019-05-17T13:51:58.234Z,100280.54
2019-05-17T13:54:23.685Z,100280.27
2019-05-17T13:56:49.156Z,100276.91
2019-05-17T13:59:14.647Z,100270.03
2019-05-17T14:01:40.081Z,100266.77
2019-05-17T14:04:05.574Z,100272.59
2019-05-17T14:06:31.013Z,100268.97
2019-05-17T14:08:56.418Z,100267.17
2019-05-17T14:11:21.954Z,100259.28
2019-05-17T14:13:47.427Z,100267.33
2019-05-17T14:16:12.926Z,100263.50
2019-05-17T14:18:38.423Z,100266.42
2019-05-17T14:21:03.868Z,100260.05
2019-05-17T14:23:29.384Z,100263.17
2019-05-17T14:25:54.843Z,100258.57
2019-05-17T14:28:20.414Z,100258.44
2019-05-17T14:30:45.865Z,100263.27
2019-05-17T14:33:11.923Z,100269.48
2019-05-17T14:35:37.379Z,100270.39
2019-05-17T14:38:21.111Z,100256.30
2019-05-17T14:41:05.885Z,100263.07
2019-05-17T14:43:16.102Z,100257.60
2019-05-17T14:45:41.825Z,100265.62
2019-05-17T14:48:08.315Z,100261.52
2019-05-17T14:50:33.784Z,100260.08
2019-05-17T14:53:00.611Z,100269.67
2019-05-17T14:55:26.109Z,100261.75
2019-05-17T14:57:51.613Z,100260.20
2019-05-17T15:00:17.335Z,100255.30
2019-05-17T15:02:42.789Z,100255.45
2019-05-17T15:05:20.710Z,100254.77
2019-05-17T15:07:47.244Z,100252.41
2019-05-17T15:10:12.824Z,100249.78
2019-05-17T15:12:38.542Z,100244.86
2019-05-17T15:15:08.081Z,100238.31
2019-05-17T15:17:35.101Z,100244.56
2019-05-17T15:20:00.824Z,100239.94
2019-05-17T15:22:26.411Z,100241.08
2019-05-17T15:24:51.923Z,100231.70
2019-05-17T15:27:18.741Z,100231.64
2019-05-17T15:29:44.401Z,100224.33
2019-05-17T15:32:10.036Z,100229.55
2019-05-17T15:34:35.573Z,100222.17
2019-05-17T15:37:01.322Z,100224.16
2019-05-17T15:39:26.801Z,100228.00
2019-05-17T15:41:59.441Z,100223.53
2019-05-17T15:44:27.058Z,100223.61
2019-05-17T15:46:53.569Z,100223.70
2019-05-17T15:49:18.983Z,100219.31
2019-05-17T15:51:44.375Z,100225.00
2019-05-17T15:54:17.178Z,100212.65
2019-05-17T15:56:43.090Z,100207.02
2019-05-17T15:59:08.803Z,100205.70
2019-05-17T16:01:34.458Z,100201.08
2019-05-17T16:03:59.981Z,100199.18
2019-05-17T16:06:25.349Z,100198.16
2019-05-17T16:08:51.061Z,100195.77
2019-05-17T16:11:25.433Z,100193.09
2019-05-17T16:13:50.923Z,100190.14
2019-05-17T16:16:16.362Z,100189.08
2019-05-17T16:18:41.934Z,100195.17
2019-05-17T16:21:07.385Z,100186.08
2019-05-17T16:23:32.822Z,100188.05
2019-05-17T16:25:58.379Z,100182.11
2019-05-17T16:28:23.941Z,100178.05
2019-05-17T16:30:49.396Z,100179.44
2019-05-17T16:33:14.864Z,100172.18
2019-05-17T16:35:42.477Z,100183.27
2019-05-17T16:38:07.961Z,100176.05
2019-05-17T16:40:33.668Z,100180.63
2019-05-17T16:42:59.511Z,100172.45
2019-05-17T16:45:26.001Z,100176.55
2019-05-17T16:47:51.798Z,100170.51
2019-05-17T16:50:26.305Z,100166.02
2019-05-17T16:53:04.948Z,100167.45
2019-05-17T16:55:19.702Z,100166.48
2019-05-17T16:57:45.352Z,100162.05
2019-05-17T17:00:44.276Z,100166.37
2019-05-17T17:03:09.790Z,100165.11
2019-05-17T17:05:35.642Z,100170.70
2019-05-17T17:08:01.106Z,100164.09
2019-05-17T17:10:26.578Z,100164.30
2019-05-17T17:12:52.379Z,100159.37
2019-05-17T17:15:18.044Z,100164.06
2019-05-17T17:17:43.589Z,100162.81
2019-05-17T17:20:09.545Z,100162.70
2019-05-17T17:22:35.033Z,100167.52
2019-05-17T17:25:00.551Z,100165.80
2019-05-17T17:27:25.972Z,100157.73
2019-05-17T17:29:52.046Z,100154.86
2019-05-17T17:32:21.632Z,100162.92
2019-05-17T17:34:44.971Z,100152.79
2019-05-17T17:37:10.419Z,100154.17
2019-05-17T17:39:36.438Z,100157.73
2019-05-17T17:42:02.695Z,100155.45
2019-05-17T17:44:28.222Z,100159.91
2019-05-17T17:46:54.027Z,100149.54
2019-05-17T17:49:19.483Z,100155.02
2019-05-17T17:51:44.876Z,100152.87
2019-05-17T17:54:10.325Z,100147.44
2019-05-17T17:56:35.768Z,100157.39
2019-05-17T17:59:01.296Z,100150.50
2019-05-17T18:01:26.792Z,100154.66
2019-05-17T18:03:52.244Z,100149.66
2019-05-17T18:06:17.722Z,100156.59
2019-05-17T18:08:43.718Z,100153.94
2019-05-17T18:11:09.195Z,100156.23
2019-05-17T18:13:34.577Z,100156.55
2019-05-17T18:16:00.156Z,100150.45
2019-05-17T18:18:25.597Z,100147.68
2019-05-17T18:20:51.227Z,100151.77
2019-05-17T18:23:22.541Z,100147.61
2019-05-17T18:25:44.448Z,100146.64
2019-05-17T18:28:10.911Z,100154.36
2019-05-17T18:30:36.660Z,100144.91
2019-05-17T18:33:02.195Z,100149.91
2019-05-17T18:35:51.890Z,100149.91
2019-05-17T18:38:22.317Z,100146.05
2019-05-17T18:40:47.828Z,100144.66
2019-05-17T18:43:13.419Z,100144.78
2019-05-17T18:45:44.247Z,100145.02
2019-05-17T18:48:09.647Z,100147.24
2019-05-17T18:50:35.763Z,100148.16
2019-05-17T18:53:01.346Z,100155.09
2019-05-17T18:55:26.935Z,100151.24
2019-05-17T18:57:52.540Z,100153.02
2019-05-17T19:00:18.837Z,100154.06
2019-05-17T19:02:44.379Z,100156.28
2019-05-17T19:05:10.137Z,100154.42
2019-05-17T19:07:35.610Z,100158.10
2019-05-17T19:10:01.072Z,100154.78
2019-05-17T19:12:27.028Z,100153.86
2019-05-17T19:14:52.479Z,100157.43
2019-05-17T19:17:17.966Z,100160.39
2019-05-17T19:19:43.406Z,100170.66
2019-05-17T19:22:09.256Z,100166.27
2019-05-17T19:24:34.728Z,100169.66
2019-05-17T19:27:00.460Z,100181.77
2019-05-17T19:29:27.032Z,100183.16
2019-05-17T19:31:52.755Z,100174.00
2019-05-17T19:34:24.416Z,100181.09
2019-05-17T19:36:49.975Z,100179.25
2019-05-17T19:39:15.382Z,100178.73
2019-05-17T19:41:41.105Z,100178.30
2019-05-17T19:44:06.879Z,100177.27
2019-05-17T19:46:32.851Z,100177.86
2019-05-17T19:48:58.342Z,100185.95
2019-05-17T19:51:23.790Z,100185.87
2019-05-17T19:53:49.550Z,100182.77
2019-05-17T19:56:15.027Z,100183.84
2019-05-17T19:58:40.471Z,100175.89
2019-05-17T20:01:06.288Z,100174.14
2019-05-17T20:03:31.699Z,100189.48
2019-05-17T20:05:57.091Z,100183.08
2019-05-17T20:08:22.534Z,100179.57
2019-05-17T20:10:51.596Z,100182.11
2019-05-17T20:13:15.452Z,100186.16
2019-05-17T20:15:41.405Z,100178.11
2019-05-17T20:18:06.866Z,100183.50
2019-05-17T20:20:32.414Z,100178.52
2019-05-17T20:22:57.953Z,100178.73
2019-05-17T20:25:24.913Z,100176.25
2019-05-17T20:27:50.381Z,100176.70
2019-05-17T20:30:16.855Z,100179.47
2019-05-17T20:32:42.619Z,100173.56
2019-05-17T20:35:08.653Z,100174.03
2019-05-17T20:37:34.143Z,100179.48
2019-05-17T20:39:59.976Z,100178.11
2019-05-17T20:42:25.423Z,100180.95
2019-05-17T20:44:50.908Z,100177.92
2019-05-17T20:47:16.430Z,100176.88
2019-05-17T20:49:41.920Z,100172.25
2019-05-17T20:52:09.686Z,100178.97
2019-05-17T20:54:35.859Z,100183.41
2019-05-17T20:57:01.915Z,100185.69
2019-05-17T20:59:28.240Z,100187.62
2019-05-17T21:01:56.478Z,100181.39
2019-05-17T21:04:22.645Z,100177.01
2019-05-17T21:06:48.306Z,100182.70
2019-05-17T21:09:14.346Z,100184.95
2019-05-17T21:11:41.075Z,100178.78
2019-05-17T21:14:07.994Z,100177.61
2019-05-17T21:16:34.308Z,100176.22
2019-05-17T21:19:00.473Z,100178.72
2019-05-17T21:21:26.802Z,100179.11
2019-05-17T21:23:52.543Z,100180.06
2019-05-17T21:26:18.237Z,100179.41
2019-05-17T21:28:47.092Z,100178.63
2019-05-17T21:31:11.541Z,100173.47
2019-05-17T21:33:37.958Z,100179.56
2019-05-17T21:36:04.379Z,100173.00
2019-05-17T21:38:31.246Z,100175.41
2019-05-17T21:40:59.936Z,100174.23
2019-05-17T21:43:26.478Z,100170.00
2019-05-17T21:46:03.242Z,100170.55
2019-05-17T21:48:24.391Z,100166.86
2019-05-17T21:50:50.824Z,100169.31
2019-05-17T21:53:21.832Z,100168.89
2019-05-17T21:55:47.636Z,100162.34
2019-05-17T21:58:13.442Z,100163.97
2019-05-17T22:01:18.094Z,100169.17
2019-05-17T22:03:44.009Z,100161.78
2019-05-17T22:06:10.152Z,100166.05
2019-05-17T22:08:35.755Z,100163.45
2019-05-17T22:11:01.974Z,100170.90
2019-05-17T22:13:27.487Z,100164.98
2019-05-17T22:15:56.278Z,100157.59
2019-05-17T22:18:22.433Z,100165.30
2019-05-17T22:20:48.019Z,100155.83
2019-05-17T22:23:13.567Z,100164.20
2019-05-17T22:25:39.176Z,100161.98
2019-05-17T22:28:04.780Z,100164.52
2019-05-17T22:30:30.326Z,100161.70
2019-05-17T22:32:55.911Z,100159.77
2019-05-17T22:35:21.459Z,100161.06
2019-05-17T22:37:47.097Z,100157.38
2019-05-17T22:40:12.816Z,100152.85
2019-05-17T22:42:57.209Z,100156.63
2019-05-17T22:45:22.735Z,100155.89
2019-05-17T22:47:48.294Z,100160.64
2019-05-17T22:50:13.941Z,100168.91
2019-05-17T22:52:41.522Z,100157.78
2019-05-17T22:55:07.277Z,100156.34
2019-05-17T22:57:32.889Z,100153.03
2019-05-17T22:59:58.455Z,100151.88
2019-05-17T23:02:24.514Z,100145.97
2019-05-17T23:04:49.997Z,100151.41
2019-05-17T23:07:16.641Z,100144.26
2019-05-17T23:09:42.106Z,100138.66
2019-05-17T23:12:07.477Z,100143.56
2019-05-17T23:14:34.104Z,100140.74
2019-05-17T23:16:59.772Z,100140.20
2019-05-17T23:19:25.525Z,100137.42
2019-05-17T23:21:52.099Z,100138.06
2019-05-17T23:24:17.599Z,100138.66
2019-05-17T23:26:43.536Z,100138.52
2019-05-17T23:29:09.371Z,100143.36
2019-05-17T23:31:34.915Z,100149.96
2019-05-17T23:34:00.808Z,100144.48
2019-05-17T23:36:26.991Z,100139.06
2019-05-17T23:38:52.387Z,100139.20
2019-05-17T23:41:17.829Z,100143.67
2019-05-17T23:43:43.688Z,100138.60
2019-05-17T23:46:09.586Z,100133.58
2019-05-17T23:48:35.685Z,100133.30
2019-05-17T23:51:01.894Z,100130.59
2019-05-17T23:53:27.776Z,100132.89
2019-05-17T23:55:54.403Z,100135.20
2019-05-17T23:58:20.137Z,100137.59
